createdAt,value
2018-08-19T00:01:15.324Z,14.10
2018-08-19T00:03:49.894Z,15.38
2018-08-19T00:06:21.626Z,11.43
2018-08-19T00:08:53.082Z,15.45
2018-08-19T00:11:23.513Z,11.63
2018-08-19T00:13:56.380Z,17.65
2018-08-19T00:16:30.753Z,15.80
2018-08-19T00:19:02.811Z,19.80
2018-08-19T00:21:35.576Z,10.85
2018-08-19T00:24:10.048Z,16.17
2018-08-19T00:26:43.099Z,17.08
2018-08-19T00:29:14.561Z,11.32
2018-08-19T00:31:46.156Z,15.95
2018-08-19T00:34:21.268Z,14.30
2018-08-19T00:36:52.697Z,15.40
2018-08-19T00:39:24.079Z,13.30
2018-08-19T00:41:57.491Z,13.20
2018-08-19T00:44:29.030Z,11.77
2018-08-19T00:46:59.135Z,12.98
2018-08-19T00:49:32.221Z,13.45
2018-08-19T00:52:05.744Z,12.82
2018-08-19T00:54:40.231Z,13.00
2018-08-19T00:57:11.713Z,9.13
2018-08-19T00:59:46.168Z,12.30
2018-08-19T01:02:19.037Z,16.00
2018-08-19T01:04:51.073Z,13.35
2018-08-19T01:07:24.175Z,13.95
2018-08-19T01:09:56.893Z,16.70
2018-08-19T01:12:29.202Z,13.75
2018-08-19T01:15:02.331Z,11.93
2018-08-19T01:17:47.331Z,16.85
2018-08-19T01:20:24.901Z,11.57
2018-08-19T01:22:58.066Z,14.25
2018-08-19T01:25:29.577Z,10.93
2018-08-19T01:28:02.554Z,13.30
2018-08-19T01:30:35.760Z,15.85
2018-08-19T01:33:08.765Z,16.02
2018-08-19T01:35:42.889Z,14.52
2018-08-19T01:38:12.862Z,17.08
2018-08-19T01:40:44.369Z,14.15
2018-08-19T01:43:17.594Z,10.88
2018-08-19T01:45:48.643Z,11.75
2018-08-19T01:48:21.959Z,10.93
2018-08-19T01:50:55.024Z,9.35
2018-08-19T01:53:26.674Z,14.40
2018-08-19T01:55:59.474Z,12.27
2018-08-19T01:58:34.918Z,11.88
2018-08-19T02:01:09.529Z,13.35
2018-08-19T02:03:43.135Z,11.68
2018-08-19T02:06:14.646Z,10.90
2018-08-19T02:08:46.977Z,13.88
2018-08-19T02:11:36.079Z,13.60
2018-08-19T02:14:09.110Z,10.73
2018-08-19T02:16:42.417Z,12.82
2018-08-19T02:19:17.010Z,14.23
2018-08-19T02:21:52.350Z,10.70
2018-08-19T02:24:22.311Z,14.73
2018-08-19T02:26:55.321Z,11.12
2018-08-19T02:29:39.936Z,10.93
2018-08-19T02:32:12.602Z,13.77
2018-08-19T02:34:46.368Z,12.63
2018-08-19T02:37:20.268Z,12.50
2018-08-19T02:39:53.324Z,13.68
2018-08-19T02:42:33.606Z,13.52
2018-08-19T02:45:09.685Z,12.73
2018-08-19T02:47:42.695Z,14.77
2018-08-19T02:50:12.828Z,10.30
2018-08-19T02:52:45.745Z,11.90
2018-08-19T02:55:17.200Z,11.35
2018-08-19T02:57:48.637Z,13.98
2018-08-19T03:00:23.960Z,14.55
2018-08-19T03:02:55.570Z,11.20
2018-08-19T03:05:26.982Z,12.52
2018-08-19T03:08:01.571Z,10.75
2018-08-19T03:10:36.250Z,12.27
2018-08-19T03:13:06.726Z,9.63
2018-08-19T03:15:38.403Z,10.40
2018-08-19T03:18:09.990Z,9.20
2018-08-19T03:20:41.574Z,9.95
2018-08-19T03:23:17.071Z,9.77
2018-08-19T03:25:50.036Z,13.00
2018-08-19T03:28:22.152Z,13.60
2018-08-19T03:31:06.117Z,12.82
2018-08-19T03:33:37.673Z,13.30
2018-08-19T03:36:10.218Z,11.50
2018-08-19T03:38:42.088Z,9.15
2018-08-19T03:41:12.158Z,13.45
2018-08-19T03:43:52.704Z,13.23
2018-08-19T03:46:24.168Z,12.43
2018-08-19T03:48:57.329Z,12.00
2018-08-19T03:51:29.668Z,13.48
2018-08-19T03:54:00.886Z,9.77
2018-08-19T03:56:40.583Z,17.25
2018-08-19T03:59:15.027Z,14.95
2018-08-19T04:01:48.012Z,13.35
2018-08-19T04:04:23.744Z,12.80
2018-08-19T04:06:54.232Z,18.42
2018-08-19T04:09:27.302Z,12.20
2018-08-19T04:12:20.397Z,12.18
2018-08-19T04:14:50.510Z,16.02
2018-08-19T04:17:23.668Z,12.80
2018-08-19T04:19:58.488Z,14.52
2018-08-19T04:22:30.512Z,13.60
2018-08-19T04:25:03.620Z,13.70
2018-08-19T04:27:35.617Z,13.02
2018-08-19T04:30:06.063Z,14.45
2018-08-19T04:32:40.688Z,16.62
2018-08-19T04:35:12.631Z,17.35
2018-08-19T04:37:45.749Z,18.65
2018-08-19T04:40:17.280Z,18.73
2018-08-19T04:42:48.895Z,13.32
2018-08-19T04:45:21.978Z,9.60
2018-08-19T04:47:56.568Z,11.55
2018-08-19T04:50:28.197Z,10.98
2018-08-19T04:52:59.752Z,12.98
2018-08-19T04:55:32.829Z,14.23
2018-08-19T04:58:04.675Z,14.98
2018-08-19T05:00:37.768Z,14.18
2018-08-19T05:03:11.008Z,15.43
2018-08-19T05:05:44.076Z,11.85
2018-08-19T05:08:17.178Z,17.95
2018-08-19T05:10:49.895Z,14.87
2018-08-19T05:13:21.317Z,15.35
2018-08-19T05:15:54.319Z,16.20
2018-08-19T05:18:25.789Z,17.05
2018-08-19T05:21:19.679Z,14.40
2018-08-19T05:23:52.720Z,12.82
2018-08-19T05:26:23.462Z,10.80
2018-08-19T05:29:15.607Z,13.95
2018-08-19T05:31:50.098Z,13.98
2018-08-19T05:34:34.046Z,12.88
2018-08-19T05:37:06.764Z,11.07
2018-08-19T05:39:38.649Z,13.93
2018-08-19T05:42:14.900Z,12.95
2018-08-19T05:44:45.289Z,11.23
2018-08-19T05:47:23.161Z,12.20
2018-08-19T05:49:57.657Z,16.85
2018-08-19T05:52:29.106Z,13.07
2018-08-19T05:55:01.543Z,11.63
2018-08-19T05:57:34.082Z,12.90
2018-08-19T06:00:27.820Z,15.13
2018-08-19T06:03:04.904Z,12.43
2018-08-19T06:05:37.882Z,12.88
2018-08-19T06:08:18.201Z,13.13
2018-08-19T06:10:51.082Z,15.77
2018-08-19T06:13:23.821Z,17.48
2018-08-19T06:15:56.990Z,14.93
2018-08-19T06:18:30.625Z,13.35
2018-08-19T06:21:00.725Z,15.32
2018-08-19T06:23:33.657Z,11.12
2018-08-19T06:26:05.279Z,16.48
2018-08-19T06:28:38.169Z,19.65
2018-08-19T06:31:09.804Z,16.37
2018-08-19T06:33:44.057Z,14.43
2018-08-19T06:36:15.687Z,17.10
2018-08-19T06:38:45.615Z,16.50
2018-08-19T06:41:17.202Z,18.35
2018-08-19T06:43:51.723Z,18.87
2018-08-19T06:46:23.277Z,12.85
2018-08-19T06:48:54.977Z,16.40
2018-08-19T06:51:28.005Z,14.68
2018-08-19T06:53:59.515Z,19.87
2018-08-19T06:56:32.532Z,18.42
2018-08-19T06:59:02.576Z,19.98
2018-08-19T07:01:34.003Z,20.45
2018-08-19T07:04:05.579Z,22.05
2018-08-19T07:06:35.568Z,19.65
2018-08-19T07:09:09.683Z,15.32
2018-08-19T07:12:08.741Z,18.67
2018-08-19T07:14:43.181Z,14.48
2018-08-19T07:17:16.360Z,18.23
2018-08-19T07:19:48.729Z,15.25
2018-08-19T07:22:25.022Z,18.25
2018-08-19T07:24:56.655Z,14.00
2018-08-19T07:27:30.169Z,15.50
2018-08-19T07:30:03.421Z,19.52
2018-08-19T07:32:36.568Z,19.42
2018-08-19T07:35:09.555Z,19.73
2018-08-19T07:37:39.849Z,20.60
2018-08-19T07:40:12.721Z,19.62
2018-08-19T07:42:45.578Z,17.45
2018-08-19T07:45:17.045Z,17.80
2018-08-19T07:47:50.053Z,14.57
2018-08-19T07:50:23.036Z,20.52
2018-08-19T07:52:57.648Z,18.90
2018-08-19T07:55:30.675Z,19.95
2018-08-19T07:58:05.064Z,17.95
2018-08-19T08:00:45.815Z,18.83
2018-08-19T08:03:20.409Z,14.87
2018-08-19T08:05:52.385Z,15.07
2018-08-19T08:08:26.344Z,17.55
2018-08-19T08:10:59.804Z,17.83
2018-08-19T08:13:30.432Z,17.40
2018-08-19T08:16:03.479Z,18.35
2018-08-19T08:18:36.828Z,22.85
2018-08-19T08:21:15.889Z,21.42
2018-08-19T08:23:48.827Z,20.80
2018-08-19T08:26:20.429Z,20.85
2018-08-19T08:29:08.254Z,16.70
2018-08-19T08:32:00.575Z,19.08
2018-08-19T08:34:34.900Z,18.75
2018-08-19T08:37:07.147Z,17.67
2018-08-19T08:39:40.459Z,16.90
2018-08-19T08:42:15.037Z,18.90
2018-08-19T08:44:46.684Z,24.55
2018-08-19T08:47:19.622Z,15.82
2018-08-19T08:49:49.603Z,20.33
2018-08-19T08:52:27.881Z,19.98
2018-08-19T08:55:03.430Z,18.08
2018-08-19T08:57:34.941Z,17.52
2018-08-19T09:00:04.287Z,15.13
2018-08-19T09:02:35.700Z,14.57
2018-08-19T09:05:11.297Z,16.12
2018-08-19T09:07:46.176Z,19.12
2018-08-19T09:10:17.694Z,15.40
2018-08-19T09:12:59.937Z,18.15
2018-08-19T09:15:29.922Z,17.85
2018-08-19T09:18:02.779Z,16.05
2018-08-19T09:20:35.963Z,20.10
2018-08-19T09:23:07.718Z,14.05
2018-08-19T09:25:39.088Z,14.52
2018-08-19T09:28:10.646Z,16.45
2018-08-19T09:30:45.248Z,22.05
2018-08-19T09:33:16.144Z,15.38
2018-08-19T09:35:49.445Z,17.30
2018-08-19T09:38:25.413Z,17.85
2018-08-19T09:40:57.522Z,12.88
2018-08-19T09:43:30.422Z,14.90
2018-08-19T09:46:05.023Z,16.15
2018-08-19T09:48:37.865Z,15.13
2018-08-19T09:51:18.049Z,15.57
2018-08-19T09:53:48.987Z,15.85
2018-08-19T09:56:42.056Z,19.73
2018-08-19T09:59:12.066Z,14.85
2018-08-19T10:01:48.742Z,14.98
2018-08-19T10:04:27.133Z,13.40
2018-08-19T10:07:10.065Z,14.18
2018-08-19T10:09:41.776Z,13.50
2018-08-19T10:12:15.898Z,13.40
2018-08-19T10:14:47.292Z,13.15
2018-08-19T10:17:18.688Z,12.48
2018-08-19T10:19:48.636Z,10.32
2018-08-19T10:22:18.677Z,11.45
2018-08-19T10:24:50.097Z,9.13
2018-08-19T10:27:20.209Z,14.02
2018-08-19T10:29:54.679Z,11.18
2018-08-19T10:32:27.030Z,12.60
2018-08-19T10:35:00.403Z,13.77
2018-08-19T10:37:33.397Z,9.63
2018-08-19T10:40:04.818Z,8.90
2018-08-19T10:42:34.771Z,11.45
2018-08-19T10:45:26.294Z,7.50
2018-08-19T10:47:57.794Z,7.10
2018-08-19T10:50:33.480Z,7.30
2018-08-19T10:53:07.011Z,11.55
2018-08-19T10:55:39.859Z,9.23
2018-08-19T10:58:11.436Z,6.95
2018-08-19T11:00:44.479Z,7.62
2018-08-19T11:03:24.084Z,8.98
2018-08-19T11:05:59.225Z,10.82
2018-08-19T11:08:32.156Z,9.93
2018-08-19T11:11:02.080Z,9.10
2018-08-19T11:13:34.991Z,8.70
2018-08-19T11:16:09.268Z,9.80
2018-08-19T11:18:46.332Z,8.38
2018-08-19T11:21:54.064Z,9.27
2018-08-19T11:24:29.214Z,10.00
2018-08-19T11:27:08.791Z,10.32
2018-08-19T11:29:44.627Z,9.23
2018-08-19T11:32:36.343Z,11.48
2018-08-19T11:35:11.532Z,8.60
2018-08-19T11:37:43.163Z,11.98
2018-08-19T11:40:16.114Z,10.73
2018-08-19T11:42:49.070Z,13.00
2018-08-19T11:45:21.965Z,11.07
2018-08-19T11:48:00.152Z,10.23
2018-08-19T11:50:33.177Z,10.77
2018-08-19T11:53:04.828Z,13.80
2018-08-19T11:55:37.728Z,10.75
2018-08-19T11:58:09.154Z,15.70
2018-08-19T12:00:59.487Z,11.48
2018-08-19T12:03:35.166Z,12.30
2018-08-19T12:06:08.007Z,12.02
2018-08-19T12:08:39.535Z,11.80
2018-08-19T12:11:23.128Z,10.23
2018-08-19T12:13:55.924Z,10.25
2018-08-19T12:16:28.561Z,11.12
2018-08-19T12:19:22.329Z,12.68
2018-08-19T12:22:10.898Z,9.00
2018-08-19T12:24:46.461Z,8.38
2018-08-19T12:27:26.517Z,8.98
2018-08-19T12:30:18.614Z,10.88
2018-08-19T12:32:49.827Z,11.98
2018-08-19T12:35:21.205Z,11.75
2018-08-19T12:37:51.206Z,12.40
2018-08-19T12:40:24.066Z,8.55
2018-08-19T12:42:57.077Z,10.43
2018-08-19T12:45:28.614Z,9.70
2018-08-19T12:48:01.615Z,7.93
2018-08-19T12:50:33.673Z,8.80
2018-08-19T12:53:03.603Z,8.90
2018-08-19T12:55:33.555Z,11.15
2018-08-19T12:58:10.827Z,6.07
2018-08-19T13:00:41.447Z,9.07
2018-08-19T13:03:13.082Z,6.43
2018-08-19T13:06:09.167Z,8.68
2018-08-19T13:08:39.120Z,8.60
2018-08-19T13:11:11.099Z,10.43
2018-08-19T13:13:43.985Z,9.18
2018-08-19T13:16:15.477Z,10.18
2018-08-19T13:18:48.593Z,9.20
2018-08-19T13:21:23.045Z,7.72
2018-08-19T13:23:55.934Z,11.52
2018-08-19T13:26:27.426Z,7.05
2018-08-19T13:28:58.876Z,5.95
2018-08-19T13:31:37.358Z,6.45
2018-08-19T13:34:10.368Z,7.82
2018-08-19T13:36:41.855Z,8.98
2018-08-19T13:39:14.831Z,8.00
2018-08-19T13:41:49.193Z,6.72
2018-08-19T13:44:23.415Z,7.18
2018-08-19T13:46:56.470Z,10.15
2018-08-19T13:49:30.734Z,7.15
2018-08-19T13:52:07.274Z,8.48
2018-08-19T13:54:47.660Z,8.48
2018-08-19T13:57:19.176Z,9.95
2018-08-19T13:59:49.613Z,10.93
2018-08-19T14:02:19.443Z,7.57
2018-08-19T14:04:52.358Z,15.27
2018-08-19T14:07:25.408Z,9.85
2018-08-19T14:09:55.227Z,10.20
2018-08-19T14:12:26.618Z,12.70
2018-08-19T14:14:59.503Z,8.35
2018-08-19T14:17:31.422Z,8.98
2018-08-19T14:20:01.858Z,9.63
2018-08-19T14:22:33.813Z,12.05
2018-08-19T14:25:05.337Z,11.32
2018-08-19T14:27:38.480Z,8.50
2018-08-19T14:30:12.316Z,11.77
2018-08-19T14:32:46.756Z,8.43
2018-08-19T14:35:21.079Z,8.55
2018-08-19T14:37:50.970Z,10.68
2018-08-19T14:40:22.543Z,10.43
2018-08-19T14:42:54.063Z,11.65
2018-08-19T14:45:25.438Z,12.65
2018-08-19T14:47:58.531Z,10.43
2018-08-19T14:50:31.422Z,10.52
2018-08-19T14:53:02.868Z,10.70
2018-08-19T14:55:32.880Z,12.95
2018-08-19T14:58:04.281Z,15.75
2018-08-19T15:00:36.141Z,10.60
2018-08-19T15:03:09.854Z,9.75
2018-08-19T15:05:44.343Z,10.25
2018-08-19T15:08:20.409Z,10.52
2018-08-19T15:11:07.314Z,11.05
2018-08-19T15:13:41.535Z,11.90
2018-08-19T15:16:12.924Z,8.45
2018-08-19T15:18:45.957Z,11.32
2018-08-19T15:21:20.221Z,12.60
2018-08-19T15:23:50.222Z,11.18
2018-08-19T15:26:24.474Z,12.55
2018-08-19T15:28:58.973Z,13.55
2018-08-19T15:31:28.831Z,12.20
2018-08-19T15:34:01.641Z,14.60
2018-08-19T15:36:34.627Z,13.23
2018-08-19T15:39:07.533Z,13.38
2018-08-19T15:41:39.861Z,13.40
2018-08-19T15:44:14.185Z,11.63
2018-08-19T15:46:47.681Z,11.52
2018-08-19T15:49:26.128Z,14.60
2018-08-19T15:52:00.653Z,13.73
2018-08-19T15:54:33.545Z,15.52
2018-08-19T15:57:07.128Z,13.30
2018-08-19T15:59:40.447Z,15.27
2018-08-19T16:02:13.311Z,15.52
2018-08-19T16:04:44.697Z,14.02
2018-08-19T16:07:19.106Z,18.50
2018-08-19T16:09:52.074Z,19.95
2018-08-19T16:12:24.936Z,16.95
2018-08-19T16:14:56.298Z,17.70
2018-08-19T16:17:28.284Z,12.48
2018-08-19T16:20:01.319Z,16.35
2018-08-19T16:22:34.412Z,13.10
2018-08-19T16:25:07.314Z,11.35
2018-08-19T16:27:38.744Z,14.50
2018-08-19T16:30:13.211Z,14.18
2018-08-19T16:32:46.287Z,12.40
2018-08-19T16:35:17.961Z,12.05
2018-08-19T16:37:49.383Z,10.30
2018-08-19T16:40:22.397Z,13.10
2018-08-19T16:42:53.838Z,12.82
2018-08-19T16:45:26.112Z,13.95
2018-08-19T16:48:00.685Z,11.25
2018-08-19T16:50:32.386Z,10.77
2018-08-19T16:53:06.197Z,14.27
2018-08-19T16:55:36.254Z,11.35
2018-08-19T16:58:08.247Z,14.85
2018-08-19T17:00:41.370Z,14.70
2018-08-19T17:03:39.480Z,15.77
2018-08-19T17:06:15.451Z,12.70
2018-08-19T17:08:48.452Z,8.85
2018-08-19T17:11:21.504Z,12.60
2018-08-19T17:13:53.010Z,10.15
2018-08-19T17:16:25.007Z,10.18
2018-08-19T17:18:56.446Z,8.95
2018-08-19T17:21:29.318Z,7.00
2018-08-19T17:23:59.229Z,8.55
2018-08-19T17:26:30.836Z,13.43
2018-08-19T17:29:20.864Z,10.35
2018-08-19T17:31:54.470Z,9.18
2018-08-19T17:34:25.866Z,7.12
2018-08-19T17:36:55.799Z,9.20
2018-08-19T17:39:29.329Z,10.68
2018-08-19T17:42:02.121Z,9.88
2018-08-19T17:44:32.078Z,10.82
2018-08-19T17:47:03.598Z,9.68
2018-08-19T17:49:35.447Z,7.97
2018-08-19T17:52:06.877Z,12.07
2018-08-19T17:54:38.586Z,11.52
2018-08-19T17:57:12.917Z,10.32
2018-08-19T17:59:45.992Z,11.30
2018-08-19T18:02:20.181Z,15.38
2018-08-19T18:04:53.219Z,15.68
2018-08-19T18:07:29.325Z,17.27
2018-08-19T18:10:02.374Z,17.12
2018-08-19T18:12:33.132Z,17.92
2018-08-19T18:15:08.005Z,20.92
2018-08-19T18:17:38.375Z,20.95
2018-08-19T18:20:48.689Z,18.25
2018-08-19T18:23:30.037Z,20.48
2018-08-19T18:26:01.478Z,21.75
2018-08-19T18:28:34.422Z,21.02
2018-08-19T18:31:11.966Z,19.92
2018-08-19T18:33:59.335Z,20.15
2018-08-19T18:36:32.949Z,21.95
2018-08-19T18:39:08.411Z,22.05
2018-08-19T18:41:45.132Z,16.17
2018-08-19T18:44:16.799Z,22.33
2018-08-19T18:46:47.214Z,21.20
2018-08-19T18:49:20.167Z,19.75
2018-08-19T18:51:57.587Z,21.77
2018-08-19T18:54:34.234Z,21.67
2018-08-19T18:57:11.545Z,26.23
2018-08-19T18:59:46.719Z,16.98
2018-08-19T19:02:19.808Z,16.85
2018-08-19T19:04:51.257Z,20.35
2018-08-19T19:07:21.201Z,17.58
2018-08-19T19:09:54.095Z,22.23
2018-08-19T19:12:27.044Z,17.48
2018-08-19T19:15:00.418Z,23.27
2018-08-19T19:17:32.110Z,17.85
2018-08-19T19:20:04.982Z,19.58
2018-08-19T19:22:36.656Z,18.05
2018-08-19T19:25:09.647Z,15.00
2018-08-19T19:27:41.587Z,14.38
2018-08-19T19:30:14.972Z,18.98
2018-08-19T19:32:46.315Z,18.58
2018-08-19T19:35:22.486Z,17.12
2018-08-19T19:37:55.422Z,17.42
2018-08-19T19:40:26.976Z,13.18
2018-08-19T19:42:58.511Z,11.63
2018-08-19T19:45:31.486Z,11.93
2018-08-19T19:48:03.041Z,13.07
2018-08-19T19:50:32.979Z,13.40
2018-08-19T19:53:04.611Z,12.40
2018-08-19T19:55:37.584Z,13.77
2018-08-19T19:58:10.414Z,13.05
2018-08-19T20:00:58.284Z,13.60
2018-08-19T20:03:31.299Z,14.93
2018-08-19T20:06:05.009Z,13.70
2018-08-19T20:08:37.809Z,13.90
2018-08-19T20:11:33.119Z,17.85
2018-08-19T20:14:06.166Z,13.77
2018-08-19T20:16:39.653Z,17.37
2018-08-19T20:19:11.351Z,16.55
2018-08-19T20:21:42.872Z,27.00
2018-08-19T20:24:15.745Z,14.70
2018-08-19T20:26:45.735Z,13.80
2018-08-19T20:29:17.166Z,13.00
2018-08-19T20:31:52.063Z,14.27
2018-08-19T20:34:25.093Z,16.90
2018-08-19T20:36:56.504Z,11.05
2018-08-19T20:39:27.285Z,17.52
2018-08-19T20:42:02.462Z,13.75
2018-08-19T20:44:34.214Z,16.20
2018-08-19T20:47:06.309Z,11.57
2018-08-19T20:49:39.232Z,12.95
2018-08-19T20:52:12.212Z,16.80
2018-08-19T20:54:45.197Z,14.93
2018-08-19T20:57:18.136Z,12.77
2018-08-19T20:59:51.043Z,16.27
2018-08-19T21:02:24.048Z,18.08
2018-08-19T21:04:56.191Z,18.58
2018-08-19T21:07:27.663Z,18.83
2018-08-19T21:09:57.682Z,14.85
2018-08-19T21:12:29.103Z,16.48
2018-08-19T21:15:03.914Z,16.33
2018-08-19T21:17:35.193Z,14.32
2018-08-19T21:20:09.249Z,13.55
2018-08-19T21:22:42.301Z,13.57
2018-08-19T21:25:12.198Z,12.00
2018-08-19T21:27:43.618Z,15.52
2018-08-19T21:30:15.253Z,12.07
2018-08-19T21:32:46.607Z,14.10
2018-08-19T21:35:18.215Z,12.30
2018-08-19T21:37:50.371Z,10.15
2018-08-19T21:40:31.753Z,13.32
2018-08-19T21:43:06.263Z,11.20
2018-08-19T21:45:41.197Z,12.10
2018-08-19T21:48:16.722Z,10.40
2018-08-19T21:50:48.336Z,15.65
2018-08-19T21:53:21.288Z,14.07
2018-08-19T21:55:55.152Z,13.25
2018-08-19T21:58:26.459Z,12.68
2018-08-19T22:01:05.348Z,11.68
2018-08-19T22:03:51.883Z,10.68
2018-08-19T22:06:24.725Z,15.68
2018-08-19T22:08:59.190Z,17.17
2018-08-19T22:11:32.214Z,13.63
2018-08-19T22:14:06.646Z,15.23
2018-08-19T22:16:39.528Z,12.45
2018-08-19T22:19:11.058Z,15.52
2018-08-19T22:21:41.660Z,11.85
2018-08-19T22:24:14.508Z,13.50
2018-08-19T22:26:47.750Z,13.88
2018-08-19T22:29:22.764Z,14.93
2018-08-19T22:31:56.404Z,14.55
2018-08-19T22:34:30.926Z,16.50
2018-08-19T22:37:03.956Z,15.13
2018-08-19T22:39:35.594Z,18.77
2018-08-19T22:42:08.534Z,14.93
2018-08-19T22:44:42.931Z,13.95
2018-08-19T22:47:14.348Z,12.80
2018-08-19T22:49:47.270Z,14.57
2018-08-19T22:52:26.677Z,15.02
2018-08-19T22:55:01.206Z,14.80
2018-08-19T22:57:34.624Z,17.67
2018-08-19T23:00:09.257Z,17.40
2018-08-19T23:02:42.206Z,14.82
2018-08-19T23:05:15.106Z,17.37
2018-08-19T23:07:48.494Z,14.43
2018-08-19T23:10:20.213Z,16.17
2018-08-19T23:12:53.111Z,16.55
2018-08-19T23:15:44.297Z,15.98
2018-08-19T23:18:14.185Z,12.85
2018-08-19T23:20:45.842Z,16.50
2018-08-19T23:23:17.944Z,12.65
2018-08-19T23:25:51.310Z,16.62
2018-08-19T23:28:24.362Z,18.12
2018-08-19T23:30:57.694Z,19.58
2018-08-19T23:33:30.608Z,15.57
2018-08-19T23:36:02.256Z,16.08
2018-08-19T23:38:35.601Z,18.95
2018-08-19T23:41:08.553Z,16.95
2018-08-19T23:43:40.855Z,13.50
2018-08-19T23:46:13.729Z,16.58
2018-08-19T23:48:48.128Z,15.23
2018-08-19T23:51:27.669Z,14.65
2018-08-19T23:53:59.719Z,12.32
2018-08-19T23:56:33.174Z,16.25
2018-08-19T23:59:04.678Z,12.30
